sensor_id;sensor_type;location;lat;lon;timestamp;P1;durP1;ratioP1;P2;durP2;ratioP2
11537;SDS011;50159;49.426;11.182;2023-05-10T00:00:45;3.80;;;3.60;;
11537;SDS011;50159;49.426;11.182;2023-05-10T00:03:12;4.27;;;3.97;;
11537;SDS011;50159;49.426;11.182;2023-05-10T00:05:39;3.77;;;3.57;;
11537;SDS011;50159;49.426;11.182;2023-05-10T00:08:06;4.03;;;3.83;;
11537;SDS011;50159;49.426;11.182;2023-05-10T00:10:33;4.27;;;3.97;;
11537;SDS011;50159;49.426;11.182;2023-05-10T00:12:59;4.47;;;4.17;;
11537;SDS011;50159;49.426;11.182;2023-05-10T00:15:26;4.67;;;4.37;;
11537;SDS011;50159;49.426;11.182;2023-05-10T00:17:53;5.27;;;4.87;;
11537;SDS011;50159;49.426;11.182;2023-05-10T00:20:20;4.57;;;4.27;;
11537;SDS011;50159;49.426;11.182;2023-05-10T00:22:46;4.07;;;3.83;;
11537;SDS011;50159;49.426;11.182;2023-05-10T00:25:13;4.20;;;3.83;;
11537;SDS011;50159;49.426;11.182;2023-05-10T00:27:40;4.30;;;4.00;;
11537;SDS011;50159;49.426;11.182;2023-05-10T00:30:06;4.90;;;4.50;;
11537;SDS011;50159;49.426;11.182;2023-05-10T00:32:33;4.30;;;4.10;;
11537;SDS011;50159;49.426;11.182;2023-05-10T00:35:00;4.50;;;4.13;;
11537;SDS011;50159;49.426;11.182;2023-05-10T00:37:27;4.67;;;4.37;;
11537;SDS011;50159;49.426;11.182;2023-05-10T00:39:54;4.57;;;4.27;;
11537;SDS011;50159;49.426;11.182;2023-05-10T00:42:21;4.43;;;4.13;;
11537;SDS011;50159;49.426;11.182;2023-05-10T00:44:48;6.50;;;4.23;;
11537;SDS011;50159;49.426;11.182;2023-05-10T00:47:15;4.33;;;4.03;;
11537;SDS011;50159;49.426;11.182;2023-05-10T00:49:42;5.30;;;4.80;;
11537;SDS011;50159;49.426;11.182;2023-05-10T00:52:09;4.17;;;3.97;;
11537;SDS011;50159;49.426;11.182;2023-05-10T00:54:36;4.63;;;4.27;;
11537;SDS011;50159;49.426;11.182;2023-05-10T00:57:03;5.27;;;4.77;;
11537;SDS011;50159;49.426;11.182;2023-05-10T00:59:30;5.07;;;4.73;;
11537;SDS011;50159;49.426;11.182;2023-05-10T01:01:57;4.20;;;4.00;;
11537;SDS011;50159;49.426;11.182;2023-05-10T01:04:24;4.80;;;4.50;;
11537;SDS011;50159;49.426;11.182;2023-05-10T01:06:54;4.50;;;4.10;;
11537;SDS011;50159;49.426;11.182;2023-05-10T01:09:21;5.00;;;4.60;;
11537;SDS011;50159;49.426;11.182;2023-05-10T01:11:49;4.83;;;4.53;;
11537;SDS011;50159;49.426;11.182;2023-05-10T01:14:16;5.07;;;4.67;;
11537;SDS011;50159;49.426;11.182;2023-05-10T01:16:45;4.70;;;4.40;;
11537;SDS011;50159;49.426;11.182;2023-05-10T01:19:18;4.77;;;4.47;;
11537;SDS011;50159;49.426;11.182;2023-05-10T01:22:02;5.10;;;4.70;;
11537;SDS011;50159;49.426;11.182;2023-05-10T01:38:22;5.93;;;5.43;;
11537;SDS011;50159;49.426;11.182;2023-05-10T01:41:08;5.57;;;5.17;;
11537;SDS011;50159;49.426;11.182;2023-05-10T01:44:14;5.07;;;4.77;;
11537;SDS011;50159;49.426;11.182;2023-05-10T01:46:43;4.93;;;4.63;;
11537;SDS011;50159;49.426;11.182;2023-05-10T01:49:19;5.33;;;4.83;;
11537;SDS011;50159;49.426;11.182;2023-05-10T01:51:52;5.30;;;4.77;;
11537;SDS011;50159;49.426;11.182;2023-05-10T01:54:22;5.63;;;4.93;;
11537;SDS011;50159;49.426;11.182;2023-05-10T01:56:52;5.33;;;4.83;;
11537;SDS011;50159;49.426;11.182;2023-05-10T01:59:27;6.07;;;4.73;;
11537;SDS011;50159;49.426;11.182;2023-05-10T02:01:57;5.30;;;4.93;;
11537;SDS011;50159;49.426;11.182;2023-05-10T02:04:25;5.63;;;5.13;;
11537;SDS011;50159;49.426;11.182;2023-05-10T02:06:53;6.50;;;5.90;;
11537;SDS011;50159;49.426;11.182;2023-05-10T02:09:21;5.90;;;5.50;;
11537;SDS011;50159;49.426;11.182;2023-05-10T02:11:49;6.27;;;5.80;;
11537;SDS011;50159;49.426;11.182;2023-05-10T02:14:16;6.23;;;5.83;;
11537;SDS011;50159;49.426;11.182;2023-05-10T02:16:44;6.10;;;5.70;;
11537;SDS011;50159;49.426;11.182;2023-05-10T02:19:12;6.97;;;6.37;;
11537;SDS011;50159;49.426;11.182;2023-05-10T02:21:40;5.80;;;5.30;;
11537;SDS011;50159;49.426;11.182;2023-05-10T02:24:08;6.40;;;5.90;;
11537;SDS011;50159;49.426;11.182;2023-05-10T02:26:37;6.57;;;6.07;;
11537;SDS011;50159;49.426;11.182;2023-05-10T02:29:04;6.03;;;5.53;;
11537;SDS011;50159;49.426;11.182;2023-05-10T02:31:32;5.47;;;5.07;;
11537;SDS011;50159;49.426;11.182;2023-05-10T02:34:01;5.70;;;5.30;;
11537;SDS011;50159;49.426;11.182;2023-05-10T02:36:29;7.37;;;6.63;;
11537;SDS011;50159;49.426;11.182;2023-05-10T02:38:57;5.83;;;5.30;;
11537;SDS011;50159;49.426;11.182;2023-05-10T02:41:27;5.80;;;5.30;;
11537;SDS011;50159;49.426;11.182;2023-05-10T02:43:55;4.90;;;4.60;;
11537;SDS011;50159;49.426;11.182;2023-05-10T02:46:25;5.83;;;5.33;;
11537;SDS011;50159;49.426;11.182;2023-05-10T02:48:52;5.53;;;5.13;;
11537;SDS011;50159;49.426;11.182;2023-05-10T02:51:18;5.37;;;4.97;;
11537;SDS011;50159;49.426;11.182;2023-05-10T02:53:49;5.90;;;5.50;;
11537;SDS011;50159;49.426;11.182;2023-05-10T02:56:29;5.87;;;5.47;;
11537;SDS011;50159;49.426;11.182;2023-05-10T02:58:59;8.60;;;5.83;;
11537;SDS011;50159;49.426;11.182;2023-05-10T03:01:26;6.23;;;5.67;;
11537;SDS011;50159;49.426;11.182;2023-05-10T03:03:53;6.17;;;5.77;;
11537;SDS011;50159;49.426;11.182;2023-05-10T03:06:20;5.77;;;5.27;;
11537;SDS011;50159;49.426;11.182;2023-05-10T03:08:49;6.43;;;5.93;;
11537;SDS011;50159;49.426;11.182;2023-05-10T03:11:20;5.67;;;5.13;;
11537;SDS011;50159;49.426;11.182;2023-05-10T03:16:47;7.10;;;6.50;;
11537;SDS011;50159;49.426;11.182;2023-05-10T03:19:47;8.80;;;6.50;;
11537;SDS011;50159;49.426;11.182;2023-05-10T03:22:20;5.53;;;5.13;;
11537;SDS011;50159;49.426;11.182;2023-05-10T03:24:53;4.13;;;3.93;;
11537;SDS011;50159;49.426;11.182;2023-05-10T03:27:23;4.10;;;3.80;;
11537;SDS011;50159;49.426;11.182;2023-05-10T03:29:51;3.53;;;3.33;;
11537;SDS011;50159;49.426;11.182;2023-05-10T03:32:19;3.93;;;3.07;;
11537;SDS011;50159;49.426;11.182;2023-05-10T03:34:46;2.80;;;2.70;;
11537;SDS011;50159;49.426;11.182;2023-05-10T03:37:13;2.90;;;2.70;;
11537;SDS011;50159;49.426;11.182;2023-05-10T03:39:39;2.77;;;2.67;;
11537;SDS011;50159;49.426;11.182;2023-05-10T03:42:06;2.70;;;2.60;;
11537;SDS011;50159;49.426;11.182;2023-05-10T03:44:33;2.67;;;2.47;;
11537;SDS011;50159;49.426;11.182;2023-05-10T03:46:59;2.70;;;2.60;;
11537;SDS011;50159;49.426;11.182;2023-05-10T03:49:26;2.93;;;2.60;;
11537;SDS011;50159;49.426;11.182;2023-05-10T03:51:53;2.20;;;2.10;;
11537;SDS011;50159;49.426;11.182;2023-05-10T03:54:19;2.00;;;2.00;;
11537;SDS011;50159;49.426;11.182;2023-05-10T03:56:46;2.30;;;2.20;;
11537;SDS011;50159;49.426;11.182;2023-05-10T03:59:14;2.27;;;2.07;;
11537;SDS011;50159;49.426;11.182;2023-05-10T04:01:41;2.27;;;2.10;;
11537;SDS011;50159;49.426;11.182;2023-05-10T04:04:07;1.50;;;1.50;;
11537;SDS011;50159;49.426;11.182;2023-05-10T04:06:34;1.70;;;1.70;;
11537;SDS011;50159;49.426;11.182;2023-05-10T04:09:01;1.60;;;1.60;;
11537;SDS011;50159;49.426;11.182;2023-05-10T04:11:30;1.57;;;1.57;;
11537;SDS011;50159;49.426;11.182;2023-05-10T04:13:57;1.63;;;1.63;;
11537;SDS011;50159;49.426;11.182;2023-05-10T04:16:24;1.50;;;1.50;;
11537;SDS011;50159;49.426;11.182;2023-05-10T04:18:51;1.70;;;1.60;;
11537;SDS011;50159;49.426;11.182;2023-05-10T04:21:17;1.90;;;1.80;;
11537;SDS011;50159;49.426;11.182;2023-05-10T04:23:44;1.83;;;1.67;;
11537;SDS011;50159;49.426;11.182;2023-05-10T04:26:11;1.50;;;1.50;;
11537;SDS011;50159;49.426;11.182;2023-05-10T04:28:38;1.30;;;1.30;;
11537;SDS011;50159;49.426;11.182;2023-05-10T04:31:05;1.60;;;1.50;;
11537;SDS011;50159;49.426;11.182;2023-05-10T04:33:33;1.40;;;1.40;;
11537;SDS011;50159;49.426;11.182;2023-05-10T04:36:00;1.43;;;1.43;;
11537;SDS011;50159;49.426;11.182;2023-05-10T04:38:27;1.40;;;1.30;;
11537;SDS011;50159;49.426;11.182;2023-05-10T04:41:03;1.30;;;1.30;;
11537;SDS011;50159;49.426;11.182;2023-05-10T04:43:30;5.77;;;1.83;;
11537;SDS011;50159;49.426;11.182;2023-05-10T04:45:57;1.40;;;1.40;;
11537;SDS011;50159;49.426;11.182;2023-05-10T04:48:24;1.40;;;1.40;;
11537;SDS011;50159;49.426;11.182;2023-05-10T04:50:51;1.30;;;1.30;;
11537;SDS011;50159;49.426;11.182;2023-05-10T04:53:18;1.30;;;1.30;;
11537;SDS011;50159;49.426;11.182;2023-05-10T04:55:45;1.00;;;1.00;;
11537;SDS011;50159;49.426;11.182;2023-05-10T04:58:12;1.13;;;1.13;;
11537;SDS011;50159;49.426;11.182;2023-05-10T05:00:39;1.10;;;1.10;;
11537;SDS011;50159;49.426;11.182;2023-05-10T05:03:06;1.20;;;1.20;;
11537;SDS011;50159;49.426;11.182;2023-05-10T05:05:33;1.00;;;1.00;;
11537;SDS011;50159;49.426;11.182;2023-05-10T05:07:59;1.10;;;1.10;;
11537;SDS011;50159;49.426;11.182;2023-05-10T05:10:26;1.10;;;1.10;;
11537;SDS011;50159;49.426;11.182;2023-05-10T05:12:53;1.20;;;1.20;;
11537;SDS011;50159;49.426;11.182;2023-05-10T05:15:20;1.10;;;1.10;;
11537;SDS011;50159;49.426;11.182;2023-05-10T05:17:46;1.10;;;1.10;;
11537;SDS011;50159;49.426;11.182;2023-05-10T05:20:13;1.10;;;1.10;;
11537;SDS011;50159;49.426;11.182;2023-05-10T05:22:40;1.10;;;1.10;;
11537;SDS011;50159;49.426;11.182;2023-05-10T05:25:07;1.10;;;1.10;;
11537;SDS011;50159;49.426;11.182;2023-05-10T05:27:34;1.00;;;1.00;;
11537;SDS011;50159;49.426;11.182;2023-05-10T05:30:01;1.10;;;1.10;;
11537;SDS011;50159;49.426;11.182;2023-05-10T05:32:28;1.00;;;1.00;;
11537;SDS011;50159;49.426;11.182;2023-05-10T05:34:55;1.00;;;1.00;;
11537;SDS011;50159;49.426;11.182;2023-05-10T05:37:21;1.03;;;1.03;;
11537;SDS011;50159;49.426;11.182;2023-05-10T05:39:48;0.90;;;0.90;;
11537;SDS011;50159;49.426;11.182;2023-05-10T05:42:15;1.00;;;1.00;;
11537;SDS011;50159;49.426;11.182;2023-05-10T05:44:43;0.90;;;0.90;;
11537;SDS011;50159;49.426;11.182;2023-05-10T05:47:10;1.03;;;1.03;;
11537;SDS011;50159;49.426;11.182;2023-05-10T05:49:37;3.00;;;1.10;;
11537;SDS011;50159;49.426;11.182;2023-05-10T05:52:04;1.07;;;1.07;;
11537;SDS011;50159;49.426;11.182;2023-05-10T05:54:31;1.07;;;1.07;;
11537;SDS011;50159;49.426;11.182;2023-05-10T05:56:58;0.90;;;0.90;;
11537;SDS011;50159;49.426;11.182;2023-05-10T05:59:27;1.87;;;1.17;;
11537;SDS011;50159;49.426;11.182;2023-05-10T06:01:53;1.23;;;1.23;;
11537;SDS011;50159;49.426;11.182;2023-05-10T06:04:20;1.10;;;1.10;;
11537;SDS011;50159;49.426;11.182;2023-05-10T06:06:47;1.10;;;1.10;;
11537;SDS011;50159;49.426;11.182;2023-05-10T06:09:14;1.03;;;1.03;;
11537;SDS011;50159;49.426;11.182;2023-05-10T06:11:41;1.13;;;1.10;;
11537;SDS011;50159;49.426;11.182;2023-05-10T06:14:08;1.40;;;1.33;;
11537;SDS011;50159;49.426;11.182;2023-05-10T06:16:35;1.17;;;1.17;;
11537;SDS011;50159;49.426;11.182;2023-05-10T06:19:02;1.10;;;1.10;;
11537;SDS011;50159;49.426;11.182;2023-05-10T06:21:29;1.50;;;1.47;;
11537;SDS011;50159;49.426;11.182;2023-05-10T06:23:56;1.13;;;1.13;;
11537;SDS011;50159;49.426;11.182;2023-05-10T06:26:23;1.00;;;1.00;;
11537;SDS011;50159;49.426;11.182;2023-05-10T06:28:49;0.97;;;0.97;;
11537;SDS011;50159;49.426;11.182;2023-05-10T06:31:16;0.90;;;0.90;;
11537;SDS011;50159;49.426;11.182;2023-05-10T06:33:43;1.23;;;1.20;;
11537;SDS011;50159;49.426;11.182;2023-05-10T06:36:10;1.10;;;1.10;;
11537;SDS011;50159;49.426;11.182;2023-05-10T06:38:37;1.77;;;1.67;;
11537;SDS011;50159;49.426;11.182;2023-05-10T06:41:04;1.10;;;1.10;;
11537;SDS011;50159;49.426;11.182;2023-05-10T06:43:30;1.83;;;1.73;;
11537;SDS011;50159;49.426;11.182;2023-05-10T06:45:57;1.10;;;1.10;;
11537;SDS011;50159;49.426;11.182;2023-05-10T06:48:24;1.30;;;1.30;;
11537;SDS011;50159;49.426;11.182;2023-05-10T06:50:51;1.20;;;1.20;;
11537;SDS011;50159;49.426;11.182;2023-05-10T06:53:17;2.17;;;1.27;;
11537;SDS011;50159;49.426;11.182;2023-05-10T06:55:44;1.10;;;1.10;;
11537;SDS011;50159;49.426;11.182;2023-05-10T06:58:11;1.23;;;1.23;;
11537;SDS011;50159;49.426;11.182;2023-05-10T07:00:38;1.23;;;1.23;;
11537;SDS011;50159;49.426;11.182;2023-05-10T07:03:06;1.10;;;1.10;;
11537;SDS011;50159;49.426;11.182;2023-05-10T07:05:33;1.53;;;1.40;;
11537;SDS011;50159;49.426;11.182;2023-05-10T07:08:00;1.30;;;1.20;;
11537;SDS011;50159;49.426;11.182;2023-05-10T07:10:27;1.20;;;1.20;;
11537;SDS011;50159;49.426;11.182;2023-05-10T07:12:54;1.20;;;1.20;;
11537;SDS011;50159;49.426;11.182;2023-05-10T07:15:21;1.10;;;1.00;;
11537;SDS011;50159;49.426;11.182;2023-05-10T07:17:48;1.10;;;1.10;;
11537;SDS011;50159;49.426;11.182;2023-05-10T07:20:15;1.20;;;1.20;;
11537;SDS011;50159;49.426;11.182;2023-05-10T07:22:41;1.33;;;1.23;;
11537;SDS011;50159;49.426;11.182;2023-05-10T07:25:08;1.13;;;1.13;;
11537;SDS011;50159;49.426;11.182;2023-05-10T07:27:35;1.20;;;1.10;;
11537;SDS011;50159;49.426;11.182;2023-05-10T07:30:02;1.20;;;1.20;;
11537;SDS011;50159;49.426;11.182;2023-05-10T07:32:29;1.10;;;1.10;;
11537;SDS011;50159;49.426;11.182;2023-05-10T07:34:56;1.37;;;1.30;;
11537;SDS011;50159;49.426;11.182;2023-05-10T07:37:23;0.90;;;0.90;;
11537;SDS011;50159;49.426;11.182;2023-05-10T07:39:50;0.90;;;0.90;;
11537;SDS011;50159;49.426;11.182;2023-05-10T07:42:16;1.30;;;1.20;;
11537;SDS011;50159;49.426;11.182;2023-05-10T07:44:43;1.03;;;1.03;;
11537;SDS011;50159;49.426;11.182;2023-05-10T07:47:10;1.10;;;1.10;;
11537;SDS011;50159;49.426;11.182;2023-05-10T07:49:37;1.10;;;1.10;;
11537;SDS011;50159;49.426;11.182;2023-05-10T07:52:04;1.00;;;1.00;;
11537;SDS011;50159;49.426;11.182;2023-05-10T07:54:31;0.90;;;0.90;;
11537;SDS011;50159;49.426;11.182;2023-05-10T07:56:57;1.00;;;1.00;;
11537;SDS011;50159;49.426;11.182;2023-05-10T07:59:25;0.90;;;0.90;;
11537;SDS011;50159;49.426;11.182;2023-05-10T08:01:52;1.00;;;1.00;;
11537;SDS011;50159;49.426;11.182;2023-05-10T08:04:19;0.97;;;0.97;;
11537;SDS011;50159;49.426;11.182;2023-05-10T08:06:45;1.13;;;1.13;;
11537;SDS011;50159;49.426;11.182;2023-05-10T08:09:12;1.73;;;1.53;;
11537;SDS011;50159;49.426;11.182;2023-05-10T08:11:39;2.17;;;1.30;;
11537;SDS011;50159;49.426;11.182;2023-05-10T08:14:06;1.20;;;1.20;;
11537;SDS011;50159;49.426;11.182;2023-05-10T08:16:32;1.10;;;1.10;;
11537;SDS011;50159;49.426;11.182;2023-05-10T08:19:00;1.20;;;1.20;;
11537;SDS011;50159;49.426;11.182;2023-05-10T08:21:27;0.97;;;0.97;;
11537;SDS011;50159;49.426;11.182;2023-05-10T08:23:54;1.23;;;1.20;;
11537;SDS011;50159;49.426;11.182;2023-05-10T08:26:21;1.20;;;1.20;;
11537;SDS011;50159;49.426;11.182;2023-05-10T08:28:47;0.90;;;0.90;;
11537;SDS011;50159;49.426;11.182;2023-05-10T08:31:14;1.03;;;1.03;;
11537;SDS011;50159;49.426;11.182;2023-05-10T08:33:42;1.27;;;1.17;;
11537;SDS011;50159;49.426;11.182;2023-05-10T08:36:09;1.30;;;1.27;;
11537;SDS011;50159;49.426;11.182;2023-05-10T08:38:37;1.50;;;1.40;;
11537;SDS011;50159;49.426;11.182;2023-05-10T08:41:04;1.23;;;1.23;;
11537;SDS011;50159;49.426;11.182;2023-05-10T08:43:32;1.20;;;1.20;;
11537;SDS011;50159;49.426;11.182;2023-05-10T08:46:01;1.40;;;1.40;;
11537;SDS011;50159;49.426;11.182;2023-05-10T08:48:31;1.60;;;1.20;;
11537;SDS011;50159;49.426;11.182;2023-05-10T08:51:00;1.47;;;1.47;;
11537;SDS011;50159;49.426;11.182;2023-05-10T08:53:29;2.63;;;1.20;;
11537;SDS011;50159;49.426;11.182;2023-05-10T08:55:59;3.37;;;1.50;;
11537;SDS011;50159;49.426;11.182;2023-05-10T08:58:27;1.30;;;1.30;;
11537;SDS011;50159;49.426;11.182;2023-05-10T09:00:53;1.20;;;1.20;;
11537;SDS011;50159;49.426;11.182;2023-05-10T09:03:21;2.60;;;1.20;;
11537;SDS011;50159;49.426;11.182;2023-05-10T09:05:48;1.20;;;1.20;;
11537;SDS011;50159;49.426;11.182;2023-05-10T09:08:15;1.17;;;1.17;;
11537;SDS011;50159;49.426;11.182;2023-05-10T09:10:45;1.20;;;1.20;;
11537;SDS011;50159;49.426;11.182;2023-05-10T09:13:14;4.20;;;1.43;;
11537;SDS011;50159;49.426;11.182;2023-05-10T09:15:42;1.10;;;1.10;;
11537;SDS011;50159;49.426;11.182;2023-05-10T09:18:10;1.20;;;1.20;;
11537;SDS011;50159;49.426;11.182;2023-05-10T09:20:36;1.00;;;1.00;;
11537;SDS011;50159;49.426;11.182;2023-05-10T09:23:03;1.60;;;1.60;;
11537;SDS011;50159;49.426;11.182;2023-05-10T09:25:31;1.30;;;1.30;;
11537;SDS011;50159;49.426;11.182;2023-05-10T09:27:59;1.30;;;1.30;;
11537;SDS011;50159;49.426;11.182;2023-05-10T09:30:27;1.53;;;1.53;;
11537;SDS011;50159;49.426;11.182;2023-05-10T09:32:55;1.60;;;1.50;;
11537;SDS011;50159;49.426;11.182;2023-05-10T09:35:26;1.60;;;1.60;;
11537;SDS011;50159;49.426;11.182;2023-05-10T09:37:56;1.33;;;1.33;;
11537;SDS011;50159;49.426;11.182;2023-05-10T09:40:26;1.80;;;1.70;;
11537;SDS011;50159;49.426;11.182;2023-05-10T09:42:54;1.47;;;1.47;;
11537;SDS011;50159;49.426;11.182;2023-05-10T09:45:22;1.50;;;1.50;;
11537;SDS011;50159;49.426;11.182;2023-05-10T09:47:50;1.50;;;1.50;;
11537;SDS011;50159;49.426;11.182;2023-05-10T09:50:17;1.63;;;1.63;;
11537;SDS011;50159;49.426;11.182;2023-05-10T09:58:07;1.40;;;1.40;;
11537;SDS011;50159;49.426;11.182;2023-05-10T10:00:38;1.40;;;1.40;;
11537;SDS011;50159;49.426;11.182;2023-05-10T10:03:06;1.60;;;1.60;;
11537;SDS011;50159;49.426;11.182;2023-05-10T10:05:42;1.50;;;1.40;;
11537;SDS011;50159;49.426;11.182;2023-05-10T10:08:11;4.40;;;1.90;;
11537;SDS011;50159;49.426;11.182;2023-05-10T10:10:38;1.70;;;1.60;;
11537;SDS011;50159;49.426;11.182;2023-05-10T10:13:12;1.67;;;1.67;;
11537;SDS011;50159;49.426;11.182;2023-05-10T10:15:39;2.00;;;1.90;;
11537;SDS011;50159;49.426;11.182;2023-05-10T10:18:06;1.73;;;1.70;;
11537;SDS011;50159;49.426;11.182;2023-05-10T10:20:38;2.23;;;2.10;;
11537;SDS011;50159;49.426;11.182;2023-05-10T10:23:05;1.77;;;1.70;;
11537;SDS011;50159;49.426;11.182;2023-05-10T10:25:31;1.50;;;1.50;;
11537;SDS011;50159;49.426;11.182;2023-05-10T10:28:02;1.70;;;1.63;;
11537;SDS011;50159;49.426;11.182;2023-05-10T10:30:43;1.33;;;1.33;;
11537;SDS011;50159;49.426;11.182;2023-05-10T10:33:30;1.40;;;1.40;;
11537;SDS011;50159;49.426;11.182;2023-05-10T10:36:00;1.50;;;1.40;;
11537;SDS011;50159;49.426;11.182;2023-05-10T10:39:11;1.67;;;1.67;;
11537;SDS011;50159;49.426;11.182;2023-05-10T10:41:35;2.03;;;1.93;;
11537;SDS011;50159;49.426;11.182;2023-05-10T10:44:22;1.70;;;1.60;;
11537;SDS011;50159;49.426;11.182;2023-05-10T10:49:26;1.53;;;1.53;;
11537;SDS011;50159;49.426;11.182;2023-05-10T10:54:46;1.43;;;1.40;;
11537;SDS011;50159;49.426;11.182;2023-05-10T10:57:22;1.40;;;1.40;;
11537;SDS011;50159;49.426;11.182;2023-05-10T11:02:44;1.40;;;1.40;;
11537;SDS011;50159;49.426;11.182;2023-05-10T11:08:10;1.33;;;1.33;;
11537;SDS011;50159;49.426;11.182;2023-05-10T11:13:29;2.43;;;1.80;;
11537;SDS011;50159;49.426;11.182;2023-05-10T11:15:58;2.00;;;1.90;;
11537;SDS011;50159;49.426;11.182;2023-05-10T11:18:36;1.60;;;1.60;;
11537;SDS011;50159;49.426;11.182;2023-05-10T11:21:03;1.50;;;1.40;;
11537;SDS011;50159;49.426;11.182;2023-05-10T11:23:32;1.30;;;1.30;;
11537;SDS011;50159;49.426;11.182;2023-05-10T11:26:13;1.90;;;1.80;;
11537;SDS011;50159;49.426;11.182;2023-05-10T11:28:44;1.60;;;1.60;;
11537;SDS011;50159;49.426;11.182;2023-05-10T11:31:15;1.40;;;1.40;;
11537;SDS011;50159;49.426;11.182;2023-05-10T11:33:47;1.53;;;1.53;;
11537;SDS011;50159;49.426;11.182;2023-05-10T11:36:19;1.60;;;1.50;;
11537;SDS011;50159;49.426;11.182;2023-05-10T11:38:48;1.70;;;1.60;;
11537;SDS011;50159;49.426;11.182;2023-05-10T11:41:16;1.30;;;1.30;;
11537;SDS011;50159;49.426;11.182;2023-05-10T11:43:49;1.60;;;1.50;;
11537;SDS011;50159;49.426;11.182;2023-05-10T11:46:18;1.40;;;1.40;;
11537;SDS011;50159;49.426;11.182;2023-05-10T11:48:46;1.67;;;1.67;;
11537;SDS011;50159;49.426;11.182;2023-05-10T11:51:20;1.70;;;1.60;;
11537;SDS011;50159;49.426;11.182;2023-05-10T11:53:52;1.50;;;1.40;;
11537;SDS011;50159;49.426;11.182;2023-05-10T11:56:19;1.27;;;1.27;;
11537;SDS011;50159;49.426;11.182;2023-05-10T11:58:52;1.53;;;1.43;;
11537;SDS011;50159;49.426;11.182;2023-05-10T12:01:23;1.40;;;1.40;;
11537;SDS011;50159;49.426;11.182;2023-05-10T12:03:54;1.10;;;1.10;;
11537;SDS011;50159;49.426;11.182;2023-05-10T12:06:29;1.40;;;1.40;;
11537;SDS011;50159;49.426;11.182;2023-05-10T12:08:58;1.50;;;1.50;;
11537;SDS011;50159;49.426;11.182;2023-05-10T12:11:26;4.43;;;1.40;;
11537;SDS011;50159;49.426;11.182;2023-05-10T12:13:54;1.30;;;1.30;;
11537;SDS011;50159;49.426;11.182;2023-05-10T12:16:23;1.40;;;1.40;;
11537;SDS011;50159;49.426;11.182;2023-05-10T12:18:56;1.40;;;1.40;;
11537;SDS011;50159;49.426;11.182;2023-05-10T12:21:24;1.37;;;1.37;;
11537;SDS011;50159;49.426;11.182;2023-05-10T12:23:52;1.60;;;1.60;;
11537;SDS011;50159;49.426;11.182;2023-05-10T12:26:24;1.90;;;1.80;;
11537;SDS011;50159;49.426;11.182;2023-05-10T12:29:01;1.63;;;1.63;;
11537;SDS011;50159;49.426;11.182;2023-05-10T12:31:51;1.73;;;1.73;;
11537;SDS011;50159;49.426;11.182;2023-05-10T12:34:22;1.50;;;1.50;;
11537;SDS011;50159;49.426;11.182;2023-05-10T12:36:59;2.00;;;1.90;;
11537;SDS011;50159;49.426;11.182;2023-05-10T12:39:37;1.43;;;1.30;;
11537;SDS011;50159;49.426;11.182;2023-05-10T12:42:07;1.83;;;1.73;;
11537;SDS011;50159;49.426;11.182;2023-05-10T12:44:34;1.27;;;1.27;;
11537;SDS011;50159;49.426;11.182;2023-05-10T12:47:01;1.43;;;1.40;;
11537;SDS011;50159;49.426;11.182;2023-05-10T12:49:28;1.00;;;1.00;;
11537;SDS011;50159;49.426;11.182;2023-05-10T12:51:54;1.20;;;1.20;;
11537;SDS011;50159;49.426;11.182;2023-05-10T12:54:21;1.50;;;1.40;;
11537;SDS011;50159;49.426;11.182;2023-05-10T12:56:47;1.20;;;1.20;;
11537;SDS011;50159;49.426;11.182;2023-05-10T12:59:14;1.20;;;1.20;;
11537;SDS011;50159;49.426;11.182;2023-05-10T13:01:41;1.13;;;1.13;;
11537;SDS011;50159;49.426;11.182;2023-05-10T13:04:07;2.23;;;1.10;;
11537;SDS011;50159;49.426;11.182;2023-05-10T13:06:34;1.33;;;1.17;;
11537;SDS011;50159;49.426;11.182;2023-05-10T13:09:01;1.00;;;1.00;;
11537;SDS011;50159;49.426;11.182;2023-05-10T13:11:28;1.00;;;1.00;;
11537;SDS011;50159;49.426;11.182;2023-05-10T13:13:55;1.10;;;1.10;;
11537;SDS011;50159;49.426;11.182;2023-05-10T13:16:22;1.00;;;1.00;;
11537;SDS011;50159;49.426;11.182;2023-05-10T13:18:48;1.03;;;1.03;;
11537;SDS011;50159;49.426;11.182;2023-05-10T13:21:15;1.17;;;1.17;;
11537;SDS011;50159;49.426;11.182;2023-05-10T13:23:42;1.20;;;1.20;;
11537;SDS011;50159;49.426;11.182;2023-05-10T13:26:09;4.00;;;1.50;;
11537;SDS011;50159;49.426;11.182;2023-05-10T13:28:35;3.33;;;1.27;;
11537;SDS011;50159;49.426;11.182;2023-05-10T13:31:04;1.67;;;1.57;;
11537;SDS011;50159;49.426;11.182;2023-05-10T13:33:31;1.10;;;1.10;;
11537;SDS011;50159;49.426;11.182;2023-05-10T13:35:58;1.70;;;1.60;;
11537;SDS011;50159;49.426;11.182;2023-05-10T13:38:24;1.37;;;1.30;;
11537;SDS011;50159;49.426;11.182;2023-05-10T13:40:51;1.33;;;1.30;;
11537;SDS011;50159;49.426;11.182;2023-05-10T13:43:19;4.13;;;1.20;;
11537;SDS011;50159;49.426;11.182;2023-05-10T13:45:46;1.63;;;1.20;;
11537;SDS011;50159;49.426;11.182;2023-05-10T13:48:12;1.33;;;1.33;;
11537;SDS011;50159;49.426;11.182;2023-05-10T13:50:39;1.23;;;1.17;;
11537;SDS011;50159;49.426;11.182;2023-05-10T13:53:06;1.13;;;1.13;;
11537;SDS011;50159;49.426;11.182;2023-05-10T13:55:32;1.10;;;1.10;;
11537;SDS011;50159;49.426;11.182;2023-05-10T13:57:59;1.10;;;1.00;;
11537;SDS011;50159;49.426;11.182;2023-05-10T14:00:26;1.10;;;1.10;;
11537;SDS011;50159;49.426;11.182;2023-05-10T14:02:53;1.17;;;1.17;;
11537;SDS011;50159;49.426;11.182;2023-05-10T14:05:20;1.00;;;1.00;;
11537;SDS011;50159;49.426;11.182;2023-05-10T14:07:51;1.13;;;1.13;;
11537;SDS011;50159;49.426;11.182;2023-05-10T14:10:18;1.00;;;1.00;;
11537;SDS011;50159;49.426;11.182;2023-05-10T14:12:44;1.00;;;1.00;;
11537;SDS011;50159;49.426;11.182;2023-05-10T14:15:11;1.00;;;1.00;;
11537;SDS011;50159;49.426;11.182;2023-05-10T14:17:38;0.83;;;0.83;;
11537;SDS011;50159;49.426;11.182;2023-05-10T14:20:04;0.90;;;0.90;;
11537;SDS011;50159;49.426;11.182;2023-05-10T14:22:32;0.90;;;0.90;;
11537;SDS011;50159;49.426;11.182;2023-05-10T14:24:58;0.83;;;0.83;;
11537;SDS011;50159;49.426;11.182;2023-05-10T14:27:25;1.00;;;1.00;;
11537;SDS011;50159;49.426;11.182;2023-05-10T14:29:52;1.00;;;1.00;;
11537;SDS011;50159;49.426;11.182;2023-05-10T14:32:20;0.90;;;0.90;;
11537;SDS011;50159;49.426;11.182;2023-05-10T14:34:46;1.03;;;1.00;;
11537;SDS011;50159;49.426;11.182;2023-05-10T14:37:13;0.90;;;0.90;;
11537;SDS011;50159;49.426;11.182;2023-05-10T14:39:41;1.03;;;1.00;;
11537;SDS011;50159;49.426;11.182;2023-05-10T14:42:10;0.90;;;0.90;;
11537;SDS011;50159;49.426;11.182;2023-05-10T14:44:51;1.10;;;1.10;;
11537;SDS011;50159;49.426;11.182;2023-05-10T14:47:25;1.00;;;1.00;;
11537;SDS011;50159;49.426;11.182;2023-05-10T14:49:52;1.00;;;1.00;;
11537;SDS011;50159;49.426;11.182;2023-05-10T14:52:18;0.90;;;0.90;;
11537;SDS011;50159;49.426;11.182;2023-05-10T14:54:45;0.93;;;0.93;;
11537;SDS011;50159;49.426;11.182;2023-05-10T14:57:12;1.00;;;1.00;;
11537;SDS011;50159;49.426;11.182;2023-05-10T14:59:39;1.00;;;1.00;;
11537;SDS011;50159;49.426;11.182;2023-05-10T15:02:07;1.03;;;1.00;;
11537;SDS011;50159;49.426;11.182;2023-05-10T15:04:34;1.00;;;1.00;;
11537;SDS011;50159;49.426;11.182;2023-05-10T15:07:02;1.20;;;1.20;;
11537;SDS011;50159;49.426;11.182;2023-05-10T15:09:29;1.63;;;1.10;;
11537;SDS011;50159;49.426;11.182;2023-05-10T15:11:55;1.60;;;1.50;;
11537;SDS011;50159;49.426;11.182;2023-05-10T15:14:22;1.20;;;1.20;;
11537;SDS011;50159;49.426;11.182;2023-05-10T15:16:49;2.10;;;1.27;;